sensor_id;sensor_type;location;lat;lon;timestamp;temperature;humidity
14140;DHT22;7150;53.514;9.988;2023-04-03T00:01:29;10.20;67.60
14140;DHT22;7150;53.514;9.988;2023-04-03T00:03:55;10.10;67.60
14140;DHT22;7150;53.514;9.988;2023-04-03T00:06:22;10.10;67.60
14140;DHT22;7150;53.514;9.988;2023-04-03T00:08:47;10.10;67.70
14140;DHT22;7150;53.514;9.988;2023-04-03T00:11:13;10.10;67.80
14140;DHT22;7150;53.514;9.988;2023-04-03T00:13:39;10.10;67.70
14140;DHT22;7150;53.514;9.988;2023-04-03T00:16:06;10.10;67.70
14140;DHT22;7150;53.514;9.988;2023-04-03T00:18:32;10.00;67.70
14140;DHT22;7150;53.514;9.988;2023-04-03T00:20:57;10.00;67.70
14140;DHT22;7150;53.514;9.988;2023-04-03T00:23:23;10.10;67.70
14140;DHT22;7150;53.514;9.988;2023-04-03T00:25:51;10.00;67.60
14140;DHT22;7150;53.514;9.988;2023-04-03T00:28:17;10.00;67.70
14140;DHT22;7150;53.514;9.988;2023-04-03T00:30:42;10.00;67.80
14140;DHT22;7150;53.514;9.988;2023-04-03T00:33:14;10.00;67.70
14140;DHT22;7150;53.514;9.988;2023-04-03T00:35:39;10.00;67.90
14140;DHT22;7150;53.514;9.988;2023-04-03T00:38:05;10.00;67.90
14140;DHT22;7150;53.514;9.988;2023-04-03T00:40:36;10.00;67.80
14140;DHT22;7150;53.514;9.988;2023-04-03T00:43:10;9.90;68.90
14140;DHT22;7150;53.514;9.988;2023-04-03T00:45:42;9.90;69.00
14140;DHT22;7150;53.514;9.988;2023-04-03T00:48:11;9.90;69.00
14140;DHT22;7150;53.514;9.988;2023-04-03T00:50:40;9.90;69.00
14140;DHT22;7150;53.514;9.988;2023-04-03T00:53:08;9.90;69.00
14140;DHT22;7150;53.514;9.988;2023-04-03T00:55:36;9.80;68.90
14140;DHT22;7150;53.514;9.988;2023-04-03T00:58:03;9.80;68.90
14140;DHT22;7150;53.514;9.988;2023-04-03T01:00:28;9.70;69.10
14140;DHT22;7150;53.514;9.988;2023-04-03T01:02:54;9.70;69.20
14140;DHT22;7150;53.514;9.988;2023-04-03T01:05:20;9.70;69.10
14140;DHT22;7150;53.514;9.988;2023-04-03T01:07:47;9.80;69.30
14140;DHT22;7150;53.514;9.988;2023-04-03T01:10:15;9.80;69.30
14140;DHT22;7150;53.514;9.988;2023-04-03T01:12:44;9.80;69.30
14140;DHT22;7150;53.514;9.988;2023-04-03T01:15:13;9.80;69.30
14140;DHT22;7150;53.514;9.988;2023-04-03T01:17:43;9.70;69.20
14140;DHT22;7150;53.514;9.988;2023-04-03T01:25:46;9.80;69.30
14140;DHT22;7150;53.514;9.988;2023-04-03T01:28:15;9.70;69.30
14140;DHT22;7150;53.514;9.988;2023-04-03T01:33:30;9.80;69.90
14140;DHT22;7150;53.514;9.988;2023-04-03T01:35:56;9.70;69.10
14140;DHT22;7150;53.514;9.988;2023-04-03T01:38:22;9.80;69.20
14140;DHT22;7150;53.514;9.988;2023-04-03T01:40:47;9.80;69.10
14140;DHT22;7150;53.514;9.988;2023-04-03T01:43:13;9.70;69.20
14140;DHT22;7150;53.514;9.988;2023-04-03T01:45:38;9.70;69.20
14140;DHT22;7150;53.514;9.988;2023-04-03T01:48:04;9.70;69.30
14140;DHT22;7150;53.514;9.988;2023-04-03T01:50:30;9.70;69.30
14140;DHT22;7150;53.514;9.988;2023-04-03T01:52:56;9.70;69.30
14140;DHT22;7150;53.514;9.988;2023-04-03T01:55:21;9.70;69.30
14140;DHT22;7150;53.514;9.988;2023-04-03T01:57:47;9.70;69.30
14140;DHT22;7150;53.514;9.988;2023-04-03T02:00:13;9.70;69.20
14140;DHT22;7150;53.514;9.988;2023-04-03T02:02:39;9.70;69.20
14140;DHT22;7150;53.514;9.988;2023-04-03T02:05:05;9.60;69.20
14140;DHT22;7150;53.514;9.988;2023-04-03T02:07:30;9.60;69.20
14140;DHT22;7150;53.514;9.988;2023-04-03T02:09:56;9.70;69.30
14140;DHT22;7150;53.514;9.988;2023-04-03T02:12:21;9.70;69.20
14140;DHT22;7150;53.514;9.988;2023-04-03T02:14:47;9.60;69.10
14140;DHT22;7150;53.514;9.988;2023-04-03T02:17:12;9.60;69.10
14140;DHT22;7150;53.514;9.988;2023-04-03T02:19:38;9.60;69.00
14140;DHT22;7150;53.514;9.988;2023-04-03T02:22:04;9.60;69.20
14140;DHT22;7150;53.514;9.988;2023-04-03T02:24:30;9.60;69.10
14140;DHT22;7150;53.514;9.988;2023-04-03T02:26:56;9.60;69.10
14140;DHT22;7150;53.514;9.988;2023-04-03T02:29:21;9.60;69.20
14140;DHT22;7150;53.514;9.988;2023-04-03T02:31:47;9.60;69.20
14140;DHT22;7150;53.514;9.988;2023-04-03T02:34:13;9.60;69.40
14140;DHT22;7150;53.514;9.988;2023-04-03T02:36:38;9.60;69.50
14140;DHT22;7150;53.514;9.988;2023-04-03T02:39:04;9.60;69.50
14140;DHT22;7150;53.514;9.988;2023-04-03T02:41:30;9.60;69.60
14140;DHT22;7150;53.514;9.988;2023-04-03T02:44:01;9.60;69.60
14140;DHT22;7150;53.514;9.988;2023-04-03T02:46:27;9.60;69.60
14140;DHT22;7150;53.514;9.988;2023-04-03T02:48:52;9.60;69.60
14140;DHT22;7150;53.514;9.988;2023-04-03T02:51:18;9.60;69.60
14140;DHT22;7150;53.514;9.988;2023-04-03T02:53:43;9.50;69.60
14140;DHT22;7150;53.514;9.988;2023-04-03T02:56:08;9.60;69.60
14140;DHT22;7150;53.514;9.988;2023-04-03T02:58:34;9.50;69.60
14140;DHT22;7150;53.514;9.988;2023-04-03T03:01:00;9.60;69.60
14140;DHT22;7150;53.514;9.988;2023-04-03T03:03:26;9.60;69.60
14140;DHT22;7150;53.514;9.988;2023-04-03T03:06:04;9.60;69.50
14140;DHT22;7150;53.514;9.988;2023-04-03T03:08:30;9.60;69.40
14140;DHT22;7150;53.514;9.988;2023-04-03T03:10:56;9.60;69.40
14140;DHT22;7150;53.514;9.988;2023-04-03T03:13:21;9.50;69.20
14140;DHT22;7150;53.514;9.988;2023-04-03T03:15:47;9.50;69.00
14140;DHT22;7150;53.514;9.988;2023-04-03T03:18:12;9.50;69.00
14140;DHT22;7150;53.514;9.988;2023-04-03T03:20:38;9.50;69.60
14140;DHT22;7150;53.514;9.988;2023-04-03T03:23:03;9.50;68.90
14140;DHT22;7150;53.514;9.988;2023-04-03T03:25:29;9.50;68.90
14140;DHT22;7150;53.514;9.988;2023-04-03T03:27:55;9.50;68.90
14140;DHT22;7150;53.514;9.988;2023-04-03T03:30:20;9.50;69.10
14140;DHT22;7150;53.514;9.988;2023-04-03T03:32:46;9.50;69.20
14140;DHT22;7150;53.514;9.988;2023-04-03T03:35:11;9.50;69.30
14140;DHT22;7150;53.514;9.988;2023-04-03T03:37:37;9.40;69.20
14140;DHT22;7150;53.514;9.988;2023-04-03T03:40:02;9.40;69.30
14140;DHT22;7150;53.514;9.988;2023-04-03T03:42:28;9.50;69.50
14140;DHT22;7150;53.514;9.988;2023-04-03T03:44:53;9.40;69.50
14140;DHT22;7150;53.514;9.988;2023-04-03T03:47:19;9.50;69.50
14140;DHT22;7150;53.514;9.988;2023-04-03T03:49:45;9.50;69.50
14140;DHT22;7150;53.514;9.988;2023-04-03T03:52:10;9.50;69.50
14140;DHT22;7150;53.514;9.988;2023-04-03T03:54:36;9.50;69.60
14140;DHT22;7150;53.514;9.988;2023-04-03T03:57:03;9.50;69.60
14140;DHT22;7150;53.514;9.988;2023-04-03T03:59:28;9.50;69.60
14140;DHT22;7150;53.514;9.988;2023-04-03T04:01:54;9.50;69.60
14140;DHT22;7150;53.514;9.988;2023-04-03T04:04:20;9.50;69.60
14140;DHT22;7150;53.514;9.988;2023-04-03T04:06:45;9.50;69.60
14140;DHT22;7150;53.514;9.988;2023-04-03T04:09:11;9.50;69.60
14140;DHT22;7150;53.514;9.988;2023-04-03T04:11:36;9.50;69.70
14140;DHT22;7150;53.514;9.988;2023-04-03T04:14:02;9.50;69.70
14140;DHT22;7150;53.514;9.988;2023-04-03T04:16:27;9.50;69.80
14140;DHT22;7150;53.514;9.988;2023-04-03T04:18:53;9.50;69.80
14140;DHT22;7150;53.514;9.988;2023-04-03T04:21:19;9.60;69.80
14140;DHT22;7150;53.514;9.988;2023-04-03T04:23:44;9.50;69.60
14140;DHT22;7150;53.514;9.988;2023-04-03T04:26:10;9.40;69.60
14140;DHT22;7150;53.514;9.988;2023-04-03T04:28:35;9.50;69.70
14140;DHT22;7150;53.514;9.988;2023-04-03T04:31:01;9.40;69.60
14140;DHT22;7150;53.514;9.988;2023-04-03T04:33:26;9.50;69.60
14140;DHT22;7150;53.514;9.988;2023-04-03T04:35:52;9.50;69.60
14140;DHT22;7150;53.514;9.988;2023-04-03T04:38:17;9.50;69.50
14140;DHT22;7150;53.514;9.988;2023-04-03T04:40:43;9.40;69.50
14140;DHT22;7150;53.514;9.988;2023-04-03T04:43:08;9.40;69.50
14140;DHT22;7150;53.514;9.988;2023-04-03T04:45:34;9.40;69.50
14140;DHT22;7150;53.514;9.988;2023-04-03T04:47:59;9.40;69.50
14140;DHT22;7150;53.514;9.988;2023-04-03T04:50:25;9.40;69.60
14140;DHT22;7150;53.514;9.988;2023-04-03T04:52:51;9.40;69.60
14140;DHT22;7150;53.514;9.988;2023-04-03T04:55:16;9.50;69.70
14140;DHT22;7150;53.514;9.988;2023-04-03T04:57:42;9.40;69.50
14140;DHT22;7150;53.514;9.988;2023-04-03T05:00:07;9.40;69.60
14140;DHT22;7150;53.514;9.988;2023-04-03T05:02:33;9.40;69.60
14140;DHT22;7150;53.514;9.988;2023-04-03T05:04:59;9.40;69.70
14140;DHT22;7150;53.514;9.988;2023-04-03T05:07:24;9.40;69.80
14140;DHT22;7150;53.514;9.988;2023-04-03T05:09:50;9.40;69.70
14140;DHT22;7150;53.514;9.988;2023-04-03T05:12:16;9.40;69.80
14140;DHT22;7150;53.514;9.988;2023-04-03T05:14:42;9.40;69.70
14140;DHT22;7150;53.514;9.988;2023-04-03T05:17:07;9.50;69.80
14140;DHT22;7150;53.514;9.988;2023-04-03T05:19:33;9.40;69.70
14140;DHT22;7150;53.514;9.988;2023-04-03T05:21:58;9.40;69.70
14140;DHT22;7150;53.514;9.988;2023-04-03T05:24:24;9.40;69.70
14140;DHT22;7150;53.514;9.988;2023-04-03T05:26:50;9.40;69.70
14140;DHT22;7150;53.514;9.988;2023-04-03T05:29:15;9.40;69.70
14140;DHT22;7150;53.514;9.988;2023-04-03T05:31:40;9.40;69.80
14140;DHT22;7150;53.514;9.988;2023-04-03T05:34:06;9.40;69.80
14140;DHT22;7150;53.514;9.988;2023-04-03T05:36:32;9.40;69.80
14140;DHT22;7150;53.514;9.988;2023-04-03T05:38:57;9.40;69.80
14140;DHT22;7150;53.514;9.988;2023-04-03T05:41:23;9.40;69.80
14140;DHT22;7150;53.514;9.988;2023-04-03T05:43:48;9.40;69.90
14140;DHT22;7150;53.514;9.988;2023-04-03T05:46:18;9.50;70.10
14140;DHT22;7150;53.514;9.988;2023-04-03T05:48:44;9.50;70.00
14140;DHT22;7150;53.514;9.988;2023-04-03T05:51:19;9.50;70.10
14140;DHT22;7150;53.514;9.988;2023-04-03T05:53:45;9.60;71.00
14140;DHT22;7150;53.514;9.988;2023-04-03T05:56:11;9.60;70.30
14140;DHT22;7150;53.514;9.988;2023-04-03T05:58:37;9.60;70.30
14140;DHT22;7150;53.514;9.988;2023-04-03T06:01:03;9.60;70.40
14140;DHT22;7150;53.514;9.988;2023-04-03T06:03:29;9.60;70.30
14140;DHT22;7150;53.514;9.988;2023-04-03T06:05:54;9.60;70.40
14140;DHT22;7150;53.514;9.988;2023-04-03T06:08:20;9.60;70.30
14140;DHT22;7150;53.514;9.988;2023-04-03T06:10:45;9.70;70.40
14140;DHT22;7150;53.514;9.988;2023-04-03T06:13:11;9.70;70.30
14140;DHT22;7150;53.514;9.988;2023-04-03T06:15:37;9.70;70.00
14140;DHT22;7150;53.514;9.988;2023-04-03T06:18:04;9.70;69.60
14140;DHT22;7150;53.514;9.988;2023-04-03T06:20:30;9.80;69.30
14140;DHT22;7150;53.514;9.988;2023-04-03T06:22:56;9.80;69.00
14140;DHT22;7150;53.514;9.988;2023-04-03T06:25:22;9.80;68.70
14140;DHT22;7150;53.514;9.988;2023-04-03T06:27:47;9.90;68.50
14140;DHT22;7150;53.514;9.988;2023-04-03T06:30:13;10.00;67.30
14140;DHT22;7150;53.514;9.988;2023-04-03T06:32:38;10.00;67.30
14140;DHT22;7150;53.514;9.988;2023-04-03T06:35:05;10.10;67.30
14140;DHT22;7150;53.514;9.988;2023-04-03T06:37:30;10.10;67.30
14140;DHT22;7150;53.514;9.988;2023-04-03T06:39:57;10.10;67.30
14140;DHT22;7150;53.514;9.988;2023-04-03T06:42:23;10.20;67.30
14140;DHT22;7150;53.514;9.988;2023-04-03T06:44:49;10.20;67.20
14140;DHT22;7150;53.514;9.988;2023-04-03T06:47:15;10.30;67.20
14140;DHT22;7150;53.514;9.988;2023-04-03T06:49:42;10.30;67.10
14140;DHT22;7150;53.514;9.988;2023-04-03T06:52:08;10.40;67.10
14140;DHT22;7150;53.514;9.988;2023-04-03T06:54:34;10.30;66.70
14140;DHT22;7150;53.514;9.988;2023-04-03T06:56:59;10.40;66.60
14140;DHT22;7150;53.514;9.988;2023-04-03T06:59:25;10.40;66.40
14140;DHT22;7150;53.514;9.988;2023-04-03T07:01:51;10.50;66.60
14140;DHT22;7150;53.514;9.988;2023-04-03T07:04:17;10.50;66.60
14140;DHT22;7150;53.514;9.988;2023-04-03T07:06:43;10.60;66.70
14140;DHT22;7150;53.514;9.988;2023-04-03T07:09:09;10.70;67.40
14140;DHT22;7150;53.514;9.988;2023-04-03T07:11:35;10.70;66.30
14140;DHT22;7150;53.514;9.988;2023-04-03T07:14:02;10.70;66.40
14140;DHT22;7150;53.514;9.988;2023-04-03T07:16:28;10.90;66.40
14140;DHT22;7150;53.514;9.988;2023-04-03T07:18:56;11.10;66.00
14140;DHT22;7150;53.514;9.988;2023-04-03T07:21:22;11.20;65.50
14140;DHT22;7150;53.514;9.988;2023-04-03T07:23:48;11.20;65.30
14140;DHT22;7150;53.514;9.988;2023-04-03T07:26:13;11.20;65.00
14140;DHT22;7150;53.514;9.988;2023-04-03T07:28:39;11.30;64.80
14140;DHT22;7150;53.514;9.988;2023-04-03T07:31:07;11.30;64.60
14140;DHT22;7150;53.514;9.988;2023-04-03T07:33:34;11.30;64.40
14140;DHT22;7150;53.514;9.988;2023-04-03T07:36:00;11.40;64.60
14140;DHT22;7150;53.514;9.988;2023-04-03T07:38:26;11.30;64.70
14140;DHT22;7150;53.514;9.988;2023-04-03T07:40:51;11.40;64.80
14140;DHT22;7150;53.514;9.988;2023-04-03T07:43:18;11.40;64.90
14140;DHT22;7150;53.514;9.988;2023-04-03T07:45:46;11.60;65.10
14140;DHT22;7150;53.514;9.988;2023-04-03T07:48:15;11.70;65.00
14140;DHT22;7150;53.514;9.988;2023-04-03T07:50:41;11.80;64.30
14140;DHT22;7150;53.514;9.988;2023-04-03T07:53:07;11.80;64.00
14140;DHT22;7150;53.514;9.988;2023-04-03T07:55:33;11.80;63.30
14140;DHT22;7150;53.514;9.988;2023-04-03T07:57:59;11.80;63.10
14140;DHT22;7150;53.514;9.988;2023-04-03T08:00:24;11.80;63.00
14140;DHT22;7150;53.514;9.988;2023-04-03T08:02:50;11.70;62.70
14140;DHT22;7150;53.514;9.988;2023-04-03T08:05:20;11.80;62.50
14140;DHT22;7150;53.514;9.988;2023-04-03T08:07:47;11.80;62.50
14140;DHT22;7150;53.514;9.988;2023-04-03T08:10:13;11.70;62.00
14140;DHT22;7150;53.514;9.988;2023-04-03T08:12:39;11.70;61.60
14140;DHT22;7150;53.514;9.988;2023-04-03T08:15:05;11.80;61.50
14140;DHT22;7150;53.514;9.988;2023-04-03T08:17:31;11.70;60.70
14140;DHT22;7150;53.514;9.988;2023-04-03T08:19:57;11.80;60.60
14140;DHT22;7150;53.514;9.988;2023-04-03T08:22:22;11.80;60.50
14140;DHT22;7150;53.514;9.988;2023-04-03T08:24:48;11.90;60.90
14140;DHT22;7150;53.514;9.988;2023-04-03T08:27:13;11.90;60.70
14140;DHT22;7150;53.514;9.988;2023-04-03T08:29:39;11.90;60.40
14140;DHT22;7150;53.514;9.988;2023-04-03T08:32:05;11.90;60.00
14140;DHT22;7150;53.514;9.988;2023-04-03T08:34:31;11.90;59.60
14140;DHT22;7150;53.514;9.988;2023-04-03T08:37:00;12.00;59.60
14140;DHT22;7150;53.514;9.988;2023-04-03T08:39:26;12.00;59.80
14140;DHT22;7150;53.514;9.988;2023-04-03T08:41:52;12.00;59.80
14140;DHT22;7150;53.514;9.988;2023-04-03T08:44:31;12.00;59.90
14140;DHT22;7150;53.514;9.988;2023-04-03T08:49:45;12.10;59.90
14140;DHT22;7150;53.514;9.988;2023-04-03T08:52:18;12.10;59.20
14140;DHT22;7150;53.514;9.988;2023-04-03T08:55:06;12.20;58.70
14140;DHT22;7150;53.514;9.988;2023-04-03T08:57:39;12.20;58.70
14140;DHT22;7150;53.514;9.988;2023-04-03T09:00:28;12.20;58.70
14140;DHT22;7150;53.514;9.988;2023-04-03T09:02:56;12.30;58.70
14140;DHT22;7150;53.514;9.988;2023-04-03T09:05:41;12.20;58.20
14140;DHT22;7150;53.514;9.988;2023-04-03T09:10:38;12.30;57.10
14140;DHT22;7150;53.514;9.988;2023-04-03T09:13:35;12.30;57.00
14140;DHT22;7150;53.514;9.988;2023-04-03T09:19:15;12.30;55.30
14140;DHT22;7150;53.514;9.988;2023-04-03T09:21:44;12.30;55.30
14140;DHT22;7150;53.514;9.988;2023-04-03T09:24:12;12.30;55.00
14140;DHT22;7150;53.514;9.988;2023-04-03T09:26:44;12.30;54.80
14140;DHT22;7150;53.514;9.988;2023-04-03T09:29:16;12.40;54.40
14140;DHT22;7150;53.514;9.988;2023-04-03T09:31:43;12.40;54.00
14140;DHT22;7150;53.514;9.988;2023-04-03T09:34:22;12.50;53.50
14140;DHT22;7150;53.514;9.988;2023-04-03T09:36:50;12.50;52.80
14140;DHT22;7150;53.514;9.988;2023-04-03T09:39:25;12.50;52.70
14140;DHT22;7150;53.514;9.988;2023-04-03T09:42:11;12.50;51.30
14140;DHT22;7150;53.514;9.988;2023-04-03T09:44:40;12.60;51.30
14140;DHT22;7150;53.514;9.988;2023-04-03T09:47:31;12.60;51.90
14140;DHT22;7150;53.514;9.988;2023-04-03T09:52:49;12.60;52.40
14140;DHT22;7150;53.514;9.988;2023-04-03T09:55:24;12.60;52.10
14140;DHT22;7150;53.514;9.988;2023-04-03T09:57:55;12.60;51.50
14140;DHT22;7150;53.514;9.988;2023-04-03T10:00:28;12.60;50.70
14140;DHT22;7150;53.514;9.988;2023-04-03T10:02:57;12.60;50.80
14140;DHT22;7150;53.514;9.988;2023-04-03T10:10:42;12.70;50.40
14140;DHT22;7150;53.514;9.988;2023-04-03T10:13:18;12.70;50.00
14140;DHT22;7150;53.514;9.988;2023-04-03T10:15:55;12.70;50.20
14140;DHT22;7150;53.514;9.988;2023-04-03T10:18:39;12.80;49.00
14140;DHT22;7150;53.514;9.988;2023-04-03T10:21:20;12.80;48.10
14140;DHT22;7150;53.514;9.988;2023-04-03T10:23:59;12.60;48.60
14140;DHT22;7150;53.514;9.988;2023-04-03T10:32:30;12.80;49.40
14140;DHT22;7150;53.514;9.988;2023-04-03T10:35:21;12.80;48.50
14140;DHT22;7150;53.514;9.988;2023-04-03T10:38:14;12.80;48.00
14140;DHT22;7150;53.514;9.988;2023-04-03T10:41:00;12.90;47.90
14140;DHT22;7150;53.514;9.988;2023-04-03T10:43:36;12.90;47.90
14140;DHT22;7150;53.514;9.988;2023-04-03T10:46:18;12.90;47.60
14140;DHT22;7150;53.514;9.988;2023-04-03T10:54:25;13.00;47.00
14140;DHT22;7150;53.514;9.988;2023-04-03T10:57:10;13.00;47.10
14140;DHT22;7150;53.514;9.988;2023-04-03T10:59:47;13.00;46.90
14140;DHT22;7150;53.514;9.988;2023-04-03T11:02:32;13.00;46.80
14140;DHT22;7150;53.514;9.988;2023-04-03T11:05:15;13.00;46.50
14140;DHT22;7150;53.514;9.988;2023-04-03T11:07:47;13.10;46.80
14140;DHT22;7150;53.514;9.988;2023-04-03T11:11:04;13.10;46.70
14140;DHT22;7150;53.514;9.988;2023-04-03T11:13:22;13.10;46.80
14140;DHT22;7150;53.514;9.988;2023-04-03T11:15:53;13.20;47.10
14140;DHT22;7150;53.514;9.988;2023-04-03T11:18:22;13.30;47.00
14140;DHT22;7150;53.514;9.988;2023-04-03T11:21:32;13.40;47.00
14140;DHT22;7150;53.514;9.988;2023-04-03T11:23:50;13.40;47.40
14140;DHT22;7150;53.514;9.988;2023-04-03T11:26:19;13.40;47.00
14140;DHT22;7150;53.514;9.988;2023-04-03T11:28:46;13.40;46.90
14140;DHT22;7150;53.514;9.988;2023-04-03T11:31:47;13.40;47.20
14140;DHT22;7150;53.514;9.988;2023-04-03T11:36:59;13.50;47.80
14140;DHT22;7150;53.514;9.988;2023-04-03T11:39:35;13.40;47.70
14140;DHT22;7150;53.514;9.988;2023-04-03T11:42:22;13.50;47.80
14140;DHT22;7150;53.514;9.988;2023-04-03T11:44:48;13.50;47.80
14140;DHT22;7150;53.514;9.988;2023-04-03T11:47:44;13.50;47.80
14140;DHT22;7150;53.514;9.988;2023-04-03T11:50:40;13.50;47.90
14140;DHT22;7150;53.514;9.988;2023-04-03T12:14:03;13.90;49.70
14140;DHT22;7150;53.514;9.988;2023-04-03T12:19:01;14.00;50.20
14140;DHT22;7150;53.514;9.988;2023-04-03T12:24:28;14.00;50.00
14140;DHT22;7150;53.514;9.988;2023-04-03T12:46:14;13.80;49.10
14140;DHT22;7150;53.514;9.988;2023-04-03T12:51:18;13.70;48.50
14140;DHT22;7150;53.514;9.988;2023-04-03T12:53:44;13.80;48.70
14140;DHT22;7150;53.514;9.988;2023-04-03T12:56:28;13.90;48.60
14140;DHT22;7150;53.514;9.988;2023-04-03T12:58:57;14.10;47.60
14140;DHT22;7150;53.514;9.988;2023-04-03T13:01:37;14.50;47.70
14140;DHT22;7150;53.514;9.988;2023-04-03T13:04:03;14.90;47.40
14140;DHT22;7150;53.514;9.988;2023-04-03T13:06:41;15.00;46.20
14140;DHT22;7150;53.514;9.988;2023-04-03T13:09:22;15.00;45.40
14140;DHT22;7150;53.514;9.988;2023-04-03T13:11:50;15.10;45.80
14140;DHT22;7150;53.514;9.988;2023-04-03T13:14:18;15.30;46.40
14140;DHT22;7150;53.514;9.988;2023-04-03T13:17:14;15.70;46.60
14140;DHT22;7150;53.514;9.988;2023-04-03T13:19:41;16.20;45.90
14140;DHT22;7150;53.514;9.988;2023-04-03T13:22:25;16.60;45.40
14140;DHT22;7150;53.514;9.988;2023-04-03T13:24:52;16.70;45.00
14140;DHT22;7150;53.514;9.988;2023-04-03T13:27:20;16.70;44.60
14140;DHT22;7150;53.514;9.988;2023-04-03T13:29:50;16.60;44.50
14140;DHT22;7150;53.514;9.988;2023-04-03T13:32:23;16.70;44.70
14140;DHT22;7150;53.514;9.988;2023-04-03T13:34:50;16.90;44.10
14140;DHT22;7150;53.514;9.988;2023-04-03T13:37:24;17.70;44.00
14140;DHT22;7150;53.514;9.988;2023-04-03T13:42:38;20.80;41.80
14140;DHT22;7150;53.514;9.988;2023-04-03T13:45:26;22.40;40.50
14140;DHT22;7150;53.514;9.988;2023-04-03T13:48:08;24.50;39.00
14140;DHT22;7150;53.514;9.988;2023-04-03T13:50:50;26.30;37.00
14140;DHT22;7150;53.514;9.988;2023-04-03T13:53:16;27.90;34.20
14140;DHT22;7150;53.514;9.988;2023-04-03T13:56:07;28.90;33.30
14140;DHT22;7150;53.514;9.988;2023-04-03T13:58:34;28.70;32.70
14140;DHT22;7150;53.514;9.988;2023-04-03T14:01:17;27.90;32.50
14140;DHT22;7150;53.514;9.988;2023-04-03T14:03:55;27.50;32.90
14140;DHT22;7150;53.514;9.988;2023-04-03T14:06:21;27.00;32.70
14140;DHT22;7150;53.514;9.988;2023-04-03T14:08:47;26.50;32.70
14140;DHT22;7150;53.514;9.988;2023-04-03T14:11:17;26.20;32.40
14140;DHT22;7150;53.514;9.988;2023-04-03T14:13:45;26.10;32.40
14140;DHT22;7150;53.514;9.988;2023-04-03T14:16:31;26.20;32.20
14140;DHT22;7150;53.514;9.988;2023-04-03T14:18:57;26.20;32.10
14140;DHT22;7150;53.514;9.988;2023-04-03T14:21:23;26.00;32.20
14140;DHT22;7150;53.514;9.988;2023-04-03T14:23:49;26.20;32.00
14140;DHT22;7150;53.514;9.988;2023-04-03T14:26:21;26.80;31.50
14140;DHT22;7150;53.514;9.988;2023-04-03T14:28:49;27.80;30.60
14140;DHT22;7150;53.514;9.988;2023-04-03T14:31:16;29.00;29.90
14140;DHT22;7150;53.514;9.988;2023-04-03T14:33:43;30.30;30.00
14140;DHT22;7150;53.514;9.988;2023-04-03T14:36:25;31.30;28.60
14140;DHT22;7150;53.514;9.988;2023-04-03T14:38:53;32.30;27.80
14140;DHT22;7150;53.514;9.988;2023-04-03T14:41:22;33.00;27.40
14140;DHT22;7150;53.514;9.988;2023-04-03T14:43:49;33.30;26.60
14140;DHT22;7150;53.514;9.988;2023-04-03T14:46:21;33.40;26.10
14140;DHT22;7150;53.514;9.988;2023-04-03T14:48:49;33.50;26.40
14140;DHT22;7150;53.514;9.988;2023-04-03T14:51:15;33.70;25.80
14140;DHT22;7150;53.514;9.988;2023-04-03T14:53:43;33.60;25.40
14140;DHT22;7150;53.514;9.988;2023-04-03T14:56:23;33.50;24.80
14140;DHT22;7150;53.514;9.988;2023-04-03T14:58:50;33.30;24.80
14140;DHT22;7150;53.514;9.988;2023-04-03T15:01:18;33.20;24.70
14140;DHT22;7150;53.514;9.988;2023-04-03T15:03:43;33.10;24.80
14140;DHT22;7150;53.514;9.988;2023-04-03T15:06:11;33.00;24.30
14140;DHT22;7150;53.514;9.988;2023-04-03T15:08:37;33.20;24.40
14140;DHT22;7150;53.514;9.988;2023-04-03T15:11:03;33.00;24.30
14140;DHT22;7150;53.514;9.988;2023-04-03T15:13:29;30.60;23.90
14140;DHT22;7150;53.514;9.988;2023-04-03T15:15:54;30.20;24.80
14140;DHT22;7150;53.514;9.988;2023-04-03T15:18:23;28.20;25.50
14140;DHT22;7150;53.514;9.988;2023-04-03T15:20:49;26.50;26.60
14140;DHT22;7150;53.514;9.988;2023-04-03T15:23:16;24.90;27.50
14140;DHT22;7150;53.514;9.988;2023-04-03T15:25:46;23.50;28.20
14140;DHT22;7150;53.514;9.988;2023-04-03T15:28:37;22.30;28.90
14140;DHT22;7150;53.514;9.988;2023-04-03T15:31:03;21.30;29.70
14140;DHT22;7150;53.514;9.988;2023-04-03T15:33:30;20.50;30.50
14140;DHT22;7150;53.514;9.988;2023-04-03T15:35:55;19.90;31.40
14140;DHT22;7150;53.514;9.988;2023-04-03T15:38:21;19.40;32.20
14140;DHT22;7150;53.514;9.988;2023-04-03T15:40:47;18.90;32.30
14140;DHT22;7150;53.514;9.988;2023-04-03T15:43:13;18.50;32.70
14140;DHT22;7150;53.514;9.988;2023-04-03T15:45:39;18.00;33.30
14140;DHT22;7150;53.514;9.988;2023-04-03T15:48:05;17.80;34.10
14140;DHT22;7150;53.514;9.988;2023-04-03T15:50:34;17.60;34.70
14140;DHT22;7150;53.514;9.988;2023-04-03T15:55:29;17.30;35.70
14140;DHT22;7150;53.514;9.988;2023-04-03T15:57:55;17.10;35.90
14140;DHT22;7150;53.514;9.988;2023-04-03T16:00:21;16.80;35.80
14140;DHT22;7150;53.514;9.988;2023-04-03T16:02:50;16.70;35.60
14140;DHT22;7150;53.514;9.988;2023-04-03T16:05:17;16.50;35.80
14140;DHT22;7150;53.514;9.988;2023-04-03T16:07:43;16.50;36.20
14140;DHT22;7150;53.514;9.988;2023-04-03T16:10:13;16.30;36.60
14140;DHT22;7150;53.514;9.988;2023-04-03T16:12:39;16.10;37.10
14140;DHT22;7150;53.514;9.988;2023-04-03T16:15:06;16.00;37.30
14140;DHT22;7150;53.514;9.988;2023-04-03T16:17:33;15.90;37.70
14140;DHT22;7150;53.514;9.988;2023-04-03T16:20:00;15.80;38.00
14140;DHT22;7150;53.514;9.988;2023-04-03T16:22:27;15.70;38.30
14140;DHT22;7150;53.514;9.988;2023-04-03T16:24:53;15.60;38.50
14140;DHT22;7150;53.514;9.988;2023-04-03T16:27:20;15.50;38.40
14140;DHT22;7150;53.514;9.988;2023-04-03T16:29:45;15.50;39.10
14140;DHT22;7150;53.514;9.988;2023-04-03T16:32:11;15.30;39.40
14140;DHT22;7150;53.514;9.988;2023-04-03T16:34:38;15.20;39.60
14140;DHT22;7150;53.514;9.988;2023-04-03T16:37:05;15.10;39.60
14140;DHT22;7150;53.514;9.988;2023-04-03T16:39:34;15.20;40.00
14140;DHT22;7150;53.514;9.988;2023-04-03T16:42:00;15.10;40.10
14140;DHT22;7150;53.514;9.988;2023-04-03T16:44:25;15.00;40.30
14140;DHT22;7150;53.514;9.988;2023-04-03T16:46:51;14.90;40.70
14140;DHT22;7150;53.514;9.988;2023-04-03T16:49:17;14.80;41.00
14140;DHT22;7150;53.514;9.988;2023-04-03T16:51:42;14.70;41.00
14140;DHT22;7150;53.514;9.988;2023-04-03T16:54:08;14.60;41.10
14140;DHT22;7150;53.514;9.988;2023-04-03T16:56:35;14.50;41.30
14140;DHT22;7150;53.514;9.988;2023-04-03T16:59:01;14.50;41.60
14140;DHT22;7150;53.514;9.988;2023-04-03T17:01:26;14.50;41.80
14140;DHT22;7150;53.514;9.988;2023-04-03T17:03:52;14.40;41.70
14140;DHT22;7150;53.514;9.988;2023-04-03T17:06:19;14.50;42.20
14140;DHT22;7150;53.514;9.988;2023-04-03T17:08:47;14.40;42.10
14140;DHT22;7150;53.514;9.988;2023-04-03T17:11:14;14.40;42.50
14140;DHT22;7150;53.514;9.988;2023-04-03T17:13:39;14.30;42.80
14140;DHT22;7150;53.514;9.988;2023-04-03T17:16:08;14.30;43.10
14140;DHT22;7150;53.514;9.988;2023-04-03T17:18:35;14.20;43.50
14140;DHT22;7150;53.514;9.988;2023-04-03T17:21:01;14.20;43.80
14140;DHT22;7150;53.514;9.988;2023-04-03T17:23:28;14.10;44.20
14140;DHT22;7150;53.514;9.988;2023-04-03T17:25:54;14.10;44.40
14140;DHT22;7150;53.514;9.988;2023-04-03T17:28:20;14.00;44.60
14140;DHT22;7150;53.514;9.988;2023-04-03T17:30:49;14.00;44.70
14140;DHT22;7150;53.514;9.988;2023-04-03T17:33:15;13.90;44.60
14140;DHT22;7150;53.514;9.988;2023-04-03T17:35:41;13.90;44.70